createdAt,value
2022-08-12T00:00:34.644Z,19.42
2022-08-12T00:03:21.086Z,19.43
2022-08-12T00:06:06.148Z,19.43
2022-08-12T00:08:51.711Z,19.41
2022-08-12T00:11:36.643Z,19.38
2022-08-12T00:14:21.632Z,19.38
2022-08-12T00:17:06.607Z,19.38
2022-08-12T00:19:51.621Z,19.38
2022-08-12T00:22:36.715Z,19.40
2022-08-12T00:25:55.795Z,19.40
2022-08-12T00:28:27.532Z,19.39
2022-08-12T00:31:12.563Z,19.34
2022-08-12T00:33:58.015Z,19.26
2022-08-12T00:36:45.139Z,19.17
2022-08-12T00:39:30.158Z,19.10
2022-08-12T00:42:12.147Z,19.04
2022-08-12T00:44:39.901Z,18.98
2022-08-12T00:47:07.639Z,18.96
2022-08-12T00:49:51.933Z,18.95
2022-08-12T00:52:19.541Z,18.95
2022-08-12T00:54:47.754Z,18.96
2022-08-12T00:57:15.391Z,18.97
2022-08-12T00:59:43.273Z,18.98
2022-08-12T01:02:12.670Z,18.95
2022-08-12T01:04:58.445Z,18.93
2022-08-12T01:07:43.483Z,18.90
2022-08-12T01:10:29.673Z,18.82
2022-08-12T01:13:07.715Z,18.71
2022-08-12T01:15:46.741Z,18.63
2022-08-12T01:18:14.326Z,18.56
2022-08-12T01:20:42.455Z,18.51
2022-08-12T01:23:10.106Z,18.46
2022-08-12T01:25:55.593Z,18.42
2022-08-12T01:28:24.153Z,18.40
2022-08-12T01:30:51.728Z,18.37
2022-08-12T01:33:20.644Z,18.35
2022-08-12T01:35:57.920Z,18.33
2022-08-12T01:38:35.817Z,18.29
2022-08-12T01:41:03.879Z,18.26
2022-08-12T01:43:31.646Z,18.21
2022-08-12T01:45:59.659Z,18.15
2022-08-12T01:48:27.269Z,18.10
2022-08-12T01:50:55.116Z,18.04
2022-08-12T01:53:28.945Z,17.98
2022-08-12T01:56:16.521Z,17.90
2022-08-12T01:58:58.426Z,17.84
2022-08-12T02:01:26.062Z,17.78
2022-08-12T02:07:20.461Z,17.64
2022-08-12T02:10:05.423Z,17.60
2022-08-12T02:12:34.801Z,17.55
2022-08-12T02:15:02.871Z,17.50
2022-08-12T02:17:55.180Z,17.47
2022-08-12T02:20:18.141Z,17.45
2022-08-12T02:22:45.872Z,17.44
2022-08-12T02:25:14.031Z,17.45
2022-08-12T02:27:41.621Z,17.47
2022-08-12T02:30:09.269Z,17.47
2022-08-12T02:32:36.860Z,17.46
2022-08-12T02:35:04.488Z,17.42
2022-08-12T02:37:32.252Z,17.37
2022-08-12T02:40:00.565Z,17.34
2022-08-12T02:42:29.137Z,17.28
2022-08-12T02:44:58.248Z,17.21
2022-08-12T02:47:59.736Z,17.15
2022-08-12T02:50:13.449Z,17.11
2022-08-12T02:52:41.415Z,17.09
2022-08-12T02:55:09.630Z,17.06
2022-08-12T02:57:37.363Z,17.07
2022-08-12T03:00:07.841Z,17.07
2022-08-12T03:02:35.710Z,17.06
2022-08-12T03:05:03.771Z,17.10
2022-08-12T03:07:55.838Z,17.12
2022-08-12T03:10:25.148Z,17.05
2022-08-12T03:13:07.358Z,16.96
2022-08-12T03:15:35.709Z,16.86
2022-08-12T03:18:25.832Z,16.78
2022-08-12T03:20:51.109Z,16.69
2022-08-12T03:23:29.012Z,16.64
2022-08-12T03:25:59.114Z,16.59
2022-08-12T03:28:44.195Z,16.57
2022-08-12T03:31:12.242Z,16.56
2022-08-12T03:33:39.845Z,16.55
2022-08-12T03:36:08.274Z,16.55
2022-08-12T03:38:37.315Z,16.54
2022-08-12T03:41:23.902Z,16.54
2022-08-12T03:44:09.035Z,16.55
2022-08-12T03:46:54.041Z,16.54
2022-08-12T03:49:39.079Z,16.54
2022-08-12T03:52:24.083Z,16.50
2022-08-12T03:55:09.428Z,16.49
2022-08-12T03:57:54.693Z,16.46
2022-08-12T04:00:24.821Z,16.44
2022-08-12T04:02:59.209Z,16.43
2022-08-12T04:05:54.503Z,16.44
2022-08-12T04:08:14.819Z,16.43
2022-08-12T04:10:56.274Z,16.42
2022-08-12T04:13:25.689Z,16.38
2022-08-12T04:15:53.280Z,16.35
2022-08-12T04:18:20.880Z,16.34
2022-08-12T04:20:50.177Z,16.33
2022-08-12T04:23:17.948Z,16.33
2022-08-12T04:25:45.978Z,16.34
2022-08-12T04:28:14.123Z,16.36
2022-08-12T04:30:41.815Z,16.38
2022-08-12T04:33:10.171Z,16.38
2022-08-12T04:35:38.352Z,16.40
2022-08-12T04:38:06.483Z,16.43
2022-08-12T04:40:34.171Z,16.47
2022-08-12T04:43:02.364Z,16.52
2022-08-12T04:45:30.311Z,16.58
2022-08-12T04:47:58.132Z,16.64
2022-08-12T04:50:33.846Z,16.69
2022-08-12T04:53:04.035Z,16.76
2022-08-12T04:55:31.971Z,16.82
2022-08-12T04:58:01.143Z,16.87
2022-08-12T05:00:28.835Z,16.91
2022-08-12T05:02:57.252Z,16.96
2022-08-12T05:05:24.900Z,17.03
2022-08-12T05:07:54.770Z,17.10
2022-08-12T05:10:33.634Z,17.16
2022-08-12T05:13:03.719Z,17.25
2022-08-12T05:15:31.412Z,17.34
2022-08-12T05:18:02.192Z,17.42
2022-08-12T05:20:48.502Z,17.51
2022-08-12T05:23:16.335Z,17.61
2022-08-12T05:25:46.242Z,17.70
2022-08-12T05:28:14.177Z,17.81
2022-08-12T05:30:42.834Z,17.95
2022-08-12T05:33:10.645Z,18.09
2022-08-12T05:35:40.104Z,18.17
2022-08-12T05:38:25.429Z,18.26
2022-08-12T05:40:53.114Z,18.37
2022-08-12T05:43:21.095Z,18.48
2022-08-12T05:45:49.690Z,18.57
2022-08-12T05:48:17.271Z,18.68
2022-08-12T05:50:45.704Z,18.77
2022-08-12T05:53:13.379Z,18.88
2022-08-12T05:55:41.757Z,19.03
2022-08-12T05:58:09.413Z,19.21
2022-08-12T06:00:37.291Z,19.43
2022-08-12T06:03:06.223Z,19.65
2022-08-12T06:05:52.574Z,19.85
2022-08-12T06:08:22.416Z,20.04
2022-08-12T06:10:50.871Z,20.22
2022-08-12T06:13:27.937Z,20.37
2022-08-12T06:16:07.535Z,20.55
2022-08-12T06:18:35.326Z,20.71
2022-08-12T06:21:02.999Z,20.90
2022-08-12T06:23:30.737Z,21.02
2022-08-12T06:25:58.795Z,21.16
2022-08-12T06:28:26.524Z,21.28
2022-08-12T06:33:59.833Z,21.53
2022-08-12T06:36:33.853Z,21.65
2022-08-12T06:39:01.537Z,21.80
2022-08-12T06:42:22.702Z,21.91
2022-08-12T06:44:34.526Z,22.13
2022-08-12T06:47:02.263Z,22.28
2022-08-12T06:49:36.532Z,22.41
2022-08-12T06:52:04.658Z,22.59
2022-08-12T06:54:34.840Z,22.79
2022-08-12T06:57:04.614Z,22.93
2022-08-12T06:59:42.004Z,23.11
2022-08-12T07:02:11.222Z,23.29
2022-08-12T07:04:39.770Z,23.45
2022-08-12T07:07:08.273Z,23.62
2022-08-12T07:10:06.653Z,23.76
2022-08-12T07:12:26.933Z,23.89
2022-08-12T07:14:55.946Z,24.00
2022-08-12T07:17:23.819Z,24.14
2022-08-12T07:19:52.194Z,24.31
2022-08-12T07:22:23.405Z,24.47
2022-08-12T07:25:11.772Z,24.64
2022-08-12T07:27:40.906Z,24.82
2022-08-12T07:30:08.666Z,24.96
2022-08-12T07:32:36.497Z,25.11
2022-08-12T07:35:04.681Z,25.25
2022-08-12T07:37:35.186Z,25.40
2022-08-12T07:40:03.015Z,25.56
2022-08-12T07:42:31.466Z,25.71
2022-08-12T07:44:59.934Z,25.85
2022-08-12T07:47:28.083Z,26.02
2022-08-12T07:50:04.638Z,26.15
2022-08-12T07:52:34.006Z,26.32
2022-08-12T07:55:02.185Z,26.45
2022-08-12T07:57:29.893Z,26.58
2022-08-12T07:59:57.602Z,26.72
2022-08-12T08:02:26.745Z,26.86
2022-08-12T08:04:57.837Z,26.99
2022-08-12T08:07:25.844Z,27.14
2022-08-12T08:09:58.417Z,27.30
2022-08-12T08:12:44.737Z,27.42
2022-08-12T08:15:13.324Z,27.56
2022-08-12T08:17:40.955Z,27.70
2022-08-12T08:20:10.282Z,27.83
2022-08-12T08:22:42.607Z,27.95
2022-08-12T08:25:35.191Z,28.07
2022-08-12T08:27:58.520Z,28.22
2022-08-12T08:30:26.184Z,28.37
2022-08-12T08:32:53.836Z,28.48
2022-08-12T08:35:23.302Z,28.61
2022-08-12T08:37:53.748Z,28.73
2022-08-12T08:40:39.462Z,28.86
2022-08-12T08:43:07.411Z,28.98
2022-08-12T08:45:35.079Z,29.08
2022-08-12T08:48:02.679Z,29.16
2022-08-12T08:50:30.406Z,29.22
2022-08-12T08:52:59.376Z,29.25
2022-08-12T08:55:42.470Z,29.28
2022-08-12T08:58:15.530Z,29.33
2022-08-12T09:00:43.721Z,29.42
2022-08-12T09:05:09.528Z,29.51
2022-08-12T09:06:05.633Z,29.59
2022-08-12T09:08:34.669Z,29.65
2022-08-12T09:12:11.131Z,29.75
2022-08-12T09:14:18.609Z,29.90
2022-08-12T09:16:50.111Z,29.97
2022-08-12T09:19:27.562Z,30.05
2022-08-12T09:21:57.421Z,30.14
2022-08-12T09:24:30.070Z,30.22
2022-08-12T09:27:02.584Z,30.28
2022-08-12T09:30:10.936Z,30.31
2022-08-12T09:32:31.296Z,30.44
2022-08-12T09:35:06.625Z,30.56
2022-08-12T09:37:58.223Z,30.62
2022-08-12T09:41:02.552Z,30.71
2022-08-12T09:43:32.978Z,30.84
2022-08-12T09:46:06.011Z,31.05
2022-08-12T09:48:56.223Z,31.44
2022-08-12T09:51:24.826Z,31.88
2022-08-12T09:54:30.470Z,32.49
2022-08-12T09:56:59.369Z,33.04
2022-08-12T10:00:17.722Z,33.40
2022-08-12T10:02:45.681Z,33.77
2022-08-12T10:05:04.862Z,34.04
2022-08-12T10:07:40.503Z,34.37
2022-08-12T10:10:22.514Z,34.79
2022-08-12T10:13:12.136Z,35.30
2022-08-12T10:16:02.773Z,35.73
2022-08-12T10:18:35.319Z,36.01
2022-08-12T10:21:03.549Z,36.24
2022-08-12T10:23:40.087Z,36.42
2022-08-12T10:26:37.592Z,36.51
2022-08-12T10:30:40.712Z,36.76
2022-08-12T10:32:21.457Z,37.15
2022-08-12T10:34:53.474Z,37.56
2022-08-12T10:38:35.920Z,37.96
2022-08-12T10:40:19.268Z,38.34
2022-08-12T10:43:05.764Z,38.55
2022-08-12T10:45:33.455Z,38.66
2022-08-12T10:48:23.067Z,38.68
2022-08-12T10:51:01.185Z,38.73
2022-08-12T10:53:45.595Z,38.85
2022-08-12T10:56:14.326Z,38.98
2022-08-12T10:58:45.980Z,39.19
2022-08-12T11:01:49.388Z,39.52
2022-08-12T11:04:28.470Z,39.87
2022-08-12T11:07:08.851Z,40.01
2022-08-12T11:10:00.751Z,40.11
2022-08-12T11:12:56.079Z,40.43
2022-08-12T11:15:21.319Z,40.67
2022-08-12T11:17:54.579Z,40.76
2022-08-12T11:20:24.386Z,40.94
2022-08-12T11:22:59.467Z,40.94
2022-08-12T11:25:55.750Z,41.20
2022-08-12T11:28:15.995Z,41.41
2022-08-12T11:30:44.104Z,41.63
2022-08-12T11:33:24.020Z,41.82
2022-08-12T11:35:59.876Z,42.03
2022-08-12T11:38:27.916Z,42.14
2022-08-12T11:40:55.586Z,42.11
2022-08-12T11:43:25.661Z,42.19
2022-08-12T11:45:58.987Z,42.06
2022-08-12T11:48:27.342Z,41.93
2022-08-12T11:50:58.911Z,41.88
2022-08-12T11:53:56.620Z,42.04
2022-08-12T11:56:14.800Z,42.01
2022-08-12T12:01:58.789Z,42.32
2022-08-12T12:04:28.803Z,42.39
2022-08-12T12:07:06.978Z,42.55
2022-08-12T12:09:50.716Z,42.60
2022-08-12T12:12:21.457Z,42.60
2022-08-12T12:14:54.660Z,42.80
2022-08-12T12:17:23.880Z,42.90
2022-08-12T12:19:51.530Z,42.85
2022-08-12T12:22:26.796Z,42.80
2022-08-12T12:24:59.012Z,42.72
2022-08-12T12:28:04.832Z,42.76
2022-08-12T12:30:29.753Z,42.67
2022-08-12T12:32:57.953Z,42.35
2022-08-12T12:36:06.504Z,42.24
2022-08-12T12:38:14.632Z,42.37
2022-08-12T12:40:43.848Z,42.45
2022-08-12T12:43:12.810Z,42.34
2022-08-12T12:45:44.655Z,42.30
2022-08-12T12:48:14.023Z,42.22
2022-08-12T12:50:45.786Z,42.01
2022-08-12T12:54:05.768Z,41.75
2022-08-12T12:56:12.435Z,41.36
2022-08-12T12:58:43.627Z,41.07
2022-08-12T13:01:26.675Z,40.69
2022-08-12T13:04:02.065Z,40.36
2022-08-12T13:06:31.474Z,40.01
2022-08-12T13:09:02.496Z,39.54
2022-08-12T13:11:35.451Z,39.14
2022-08-12T13:14:12.830Z,38.66
2022-08-12T13:16:44.597Z,38.25
2022-08-12T13:19:12.323Z,37.92
2022-08-12T13:22:03.323Z,37.61
2022-08-12T13:24:32.237Z,37.31
2022-08-12T13:26:59.942Z,37.16
2022-08-12T13:29:31.019Z,37.05
2022-08-12T13:32:18.675Z,36.95
2022-08-12T13:34:52.908Z,36.95
2022-08-12T13:37:44.002Z,36.99
2022-08-12T13:40:20.125Z,36.89
2022-08-12T13:42:51.113Z,36.77
2022-08-12T13:45:18.868Z,36.65
2022-08-12T13:47:46.506Z,36.65
2022-08-12T13:50:14.171Z,36.63
2022-08-12T13:52:43.653Z,36.66
2022-08-12T13:55:15.397Z,36.86
2022-08-12T13:57:44.641Z,37.10
2022-08-12T14:00:14.900Z,37.26
2022-08-12T14:02:44.457Z,37.30
2022-08-12T14:05:37.825Z,37.27
2022-08-12T14:08:01.626Z,37.14
2022-08-12T14:10:39.027Z,36.95
2022-08-12T14:14:03.576Z,36.77
2022-08-12T14:16:06.382Z,36.50
2022-08-12T14:18:35.530Z,36.32
2022-08-12T14:21:05.387Z,36.30
2022-08-12T14:24:04.342Z,36.33
2022-08-12T14:26:25.088Z,36.26
2022-08-12T14:28:57.451Z,36.20
2022-08-12T14:31:29.651Z,36.29
2022-08-12T14:33:59.960Z,36.40
2022-08-12T14:36:27.588Z,36.54
2022-08-12T14:38:56.789Z,36.68
2022-08-12T14:41:37.306Z,36.82
2022-08-12T14:44:59.016Z,36.81
2022-08-12T14:47:00.999Z,37.07
2022-08-12T14:50:37.369Z,37.39
2022-08-12T14:52:55.607Z,37.55
2022-08-12T14:58:01.069Z,37.73
2022-08-12T15:00:52.197Z,37.86
2022-08-12T15:03:21.853Z,37.99
2022-08-12T15:06:06.225Z,38.24
2022-08-12T15:08:39.090Z,38.45
2022-08-12T15:11:09.328Z,38.74
2022-08-12T15:13:39.597Z,39.08
2022-08-12T15:16:07.795Z,39.61
2022-08-12T15:18:37.621Z,40.06
2022-08-12T15:21:08.818Z,40.05
2022-08-12T15:23:55.028Z,40.00
2022-08-12T15:26:28.377Z,39.80
2022-08-12T15:28:57.562Z,39.68
2022-08-12T15:31:28.234Z,39.66
2022-08-12T15:34:13.153Z,39.55
2022-08-12T15:36:53.665Z,39.38
2022-08-12T15:39:23.072Z,39.20
2022-08-12T15:41:55.546Z,39.10
2022-08-12T15:44:37.763Z,39.04
2022-08-12T15:47:09.195Z,39.02
2022-08-12T15:49:55.004Z,38.92
2022-08-12T15:52:27.811Z,39.01
2022-08-12T15:54:58.665Z,39.07
2022-08-12T15:57:26.781Z,39.32
2022-08-12T16:00:06.760Z,39.65
2022-08-12T16:02:35.570Z,39.64
2022-08-12T16:06:13.066Z,39.59
2022-08-12T16:07:52.592Z,39.68
2022-08-12T16:10:20.223Z,39.90
2022-08-12T16:12:54.667Z,40.14
2022-08-12T16:15:23.003Z,40.24
2022-08-12T16:18:25.873Z,40.48
2022-08-12T16:20:40.736Z,40.61
2022-08-12T16:23:36.386Z,40.78
2022-08-12T16:26:14.194Z,40.82
2022-08-12T16:28:43.451Z,40.69
2022-08-12T16:31:14.395Z,40.36
2022-08-12T16:33:58.903Z,39.81
2022-08-12T16:36:28.854Z,38.31
2022-08-12T16:38:56.637Z,36.99
2022-08-12T16:41:28.160Z,35.90
2022-08-12T16:43:55.999Z,34.96
2022-08-12T16:46:32.217Z,34.24
2022-08-12T16:49:04.115Z,33.64
2022-08-12T16:51:40.170Z,33.16
2022-08-12T16:54:12.675Z,32.75
2022-08-12T16:56:54.928Z,32.40
2022-08-12T16:59:53.399Z,32.11
2022-08-12T17:02:18.035Z,31.89
2022-08-12T17:05:03.211Z,31.67
2022-08-12T17:07:36.143Z,31.49
2022-08-12T17:10:04.934Z,31.31
2022-08-12T17:12:32.743Z,31.15
2022-08-12T17:15:00.817Z,30.99
2022-08-12T17:17:39.200Z,30.88
2022-08-12T17:20:34.033Z,30.75
2022-08-12T17:22:57.733Z,30.64
2022-08-12T17:25:25.938Z,30.54
2022-08-12T17:27:57.778Z,30.46
2022-08-12T17:30:28.941Z,30.37
2022-08-12T17:33:02.452Z,30.27
2022-08-12T17:35:36.921Z,30.20
2022-08-12T17:38:05.352Z,30.13
2022-08-12T17:40:35.759Z,30.05
2022-08-12T17:43:56.047Z,29.97
2022-08-12T17:45:52.937Z,29.91
2022-08-12T17:48:21.948Z,29.83
2022-08-12T17:50:52.033Z,29.74
2022-08-12T17:53:19.737Z,29.66
2022-08-12T17:55:49.727Z,29.60
2022-08-12T17:58:17.615Z,29.53
2022-08-12T18:00:45.811Z,29.46
2022-08-12T18:04:04.190Z,29.38
2022-08-12T18:06:08.732Z,29.29
2022-08-12T18:08:53.462Z,29.22
2022-08-12T18:12:04.320Z,29.16
2022-08-12T18:14:28.731Z,29.07
2022-08-12T18:16:57.173Z,28.98
2022-08-12T18:19:24.986Z,28.93
2022-08-12T18:22:01.076Z,28.86
2022-08-12T18:24:30.903Z,28.79
2022-08-12T18:26:58.551Z,28.73
2022-08-12T18:29:27.122Z,28.65
2022-08-12T18:32:44.194Z,28.54
2022-08-12T18:35:01.107Z,28.44
2022-08-12T18:37:42.359Z,28.34
2022-08-12T18:40:27.762Z,28.25
2022-08-12T18:42:57.142Z,28.18
2022-08-12T18:45:27.369Z,28.07
2022-08-12T18:48:01.622Z,28.00
2022-08-12T18:50:49.419Z,27.91
2022-08-12T18:54:05.268Z,27.79
2022-08-12T18:56:07.512Z,27.67
2022-08-12T18:59:00.043Z,27.55
2022-08-12T19:02:19.499Z,27.43
2022-08-12T19:04:16.237Z,27.31
2022-08-12T19:06:46.748Z,27.19
2022-08-12T19:09:15.185Z,27.07
2022-08-12T19:12:00.511Z,26.97
2022-08-12T19:14:28.338Z,26.83
2022-08-12T19:16:56.058Z,26.72
2022-08-12T19:19:25.599Z,26.60
2022-08-12T19:21:56.602Z,26.48
2022-08-12T19:24:43.268Z,26.35
2022-08-12T19:27:11.070Z,26.20
2022-08-12T19:29:44.154Z,26.06
2022-08-12T19:32:12.292Z,25.91
2022-08-12T19:36:00.885Z,25.79
2022-08-12T19:38:02.657Z,25.66
2022-08-12T19:40:31.377Z,25.55
2022-08-12T19:43:02.009Z,25.43
2022-08-12T19:45:41.866Z,25.32
2022-08-12T19:48:11.067Z,25.22
2022-08-12T19:50:44.875Z,25.12
2022-08-12T19:53:18.757Z,25.02
2022-08-12T19:55:51.895Z,24.92
2022-08-12T19:58:20.737Z,24.82
2022-08-12T20:00:56.307Z,24.73
2022-08-12T20:03:38.584Z,24.62
2022-08-12T20:06:14.188Z,24.50
2022-08-12T20:08:48.984Z,24.39
2022-08-12T20:12:14.575Z,24.29
2022-08-12T20:14:11.117Z,24.19
2022-08-12T20:16:57.801Z,24.09
2022-08-12T20:19:52.910Z,24.00
2022-08-12T20:22:16.630Z,23.89
2022-08-12T20:24:54.934Z,23.83
2022-08-12T20:27:29.646Z,23.75
2022-08-12T20:30:13.795Z,23.67
2022-08-12T20:32:48.017Z,23.60
2022-08-12T20:35:18.891Z,23.53
2022-08-12T20:38:06.178Z,23.45
2022-08-12T20:40:40.316Z,23.38
2022-08-12T20:43:08.764Z,23.31
2022-08-12T20:45:50.581Z,23.24
2022-08-12T20:48:21.740Z,23.18
2022-08-12T20:50:53.617Z,23.11
2022-08-12T20:53:26.514Z,23.05
2022-08-12T20:56:01.517Z,22.97
2022-08-12T20:58:29.305Z,22.92
2022-08-12T21:01:00.233Z,22.85
2022-08-12T21:03:52.582Z,22.81
2022-08-12T21:06:43.125Z,22.73
2022-08-12T21:09:10.708Z,22.66
2022-08-12T21:11:38.442Z,22.59
2022-08-12T21:14:06.352Z,22.54
2022-08-12T21:16:38.888Z,22.49
2022-08-12T21:19:07.914Z,22.42
2022-08-12T21:21:40.425Z,22.36
2022-08-12T21:24:18.157Z,22.30
2022-08-12T21:26:53.293Z,22.24
2022-08-12T21:29:21.413Z,22.20
2022-08-12T21:32:36.950Z,22.13
2022-08-12T21:34:38.439Z,22.05
2022-08-12T21:37:26.729Z,22.00
2022-08-12T21:39:56.504Z,21.94
2022-08-12T21:42:26.276Z,21.90
2022-08-12T21:45:47.526Z,21.87
2022-08-12T21:47:43.530Z,21.80
2022-08-12T21:50:11.310Z,21.72
2022-08-12T21:52:42.296Z,21.65
2022-08-12T21:55:19.009Z,21.58
2022-08-12T21:57:50.786Z,21.54
2022-08-12T22:00:21.889Z,21.47
2022-08-12T22:03:07.757Z,21.42
2022-08-12T22:05:53.050Z,21.35
2022-08-12T22:08:25.381Z,21.28
2022-08-12T22:10:56.324Z,21.23
2022-08-12T22:14:04.159Z,21.18
2022-08-12T22:16:12.112Z,21.15
2022-08-12T22:18:39.822Z,21.11
2022-08-12T22:21:09.088Z,21.09
2022-08-12T22:24:04.250Z,21.09
2022-08-12T22:26:29.406Z,21.06
2022-08-12T22:29:34.854Z,21.09
2022-08-12T22:32:02.517Z,21.12
2022-08-12T22:34:33.298Z,21.08
2022-08-12T22:37:01.433Z,21.07
2022-08-12T22:39:31.625Z,21.06
2022-08-12T22:42:25.121Z,21.06
2022-08-12T22:45:16.232Z,21.03
2022-08-12T22:47:54.151Z,20.99
2022-08-12T22:50:26.948Z,20.96
2022-08-12T22:53:15.671Z,20.94
2022-08-12T22:55:59.117Z,20.92
2022-08-12T22:58:31.832Z,20.92
2022-08-12T23:01:01.821Z,20.90
2022-08-12T23:03:48.087Z,20.88
2022-08-12T23:06:19.348Z,20.89
2022-08-12T23:08:48.051Z,20.90
2022-08-12T23:11:16.296Z,20.93
2022-08-12T23:13:46.018Z,20.92
2022-08-12T23:16:27.960Z,20.91
2022-08-12T23:18:57.258Z,20.92
2022-08-12T23:21:24.928Z,20.88
2022-08-12T23:24:10.912Z,20.82
2022-08-12T23:26:56.757Z,20.79
2022-08-12T23:29:25.929Z,20.76
2022-08-12T23:32:02.803Z,20.71
2022-08-12T23:34:37.222Z,20.68
2022-08-12T23:37:05.276Z,20.66
2022-08-12T23:40:15.881Z,20.64
2022-08-12T23:42:21.533Z,20.62
2022-08-12T23:45:03.545Z,20.60
2022-08-12T23:47:38.413Z,20.60
2022-08-12T23:50:13.147Z,20.60
2022-08-12T23:52:46.554Z,20.59
2022-08-12T23:55:24.977Z,20.59
2022-08-12T23:58:22.497Z,20.61
